Time;durP1;ratioP1;P1;durP2;ratioP2;P2;SDS_P1;SDS_P2;PMS_P1;PMS_P2;Temp;Humidity;BMP_temperature;BMP_pressure;BME280_temperature;BME280_humidity;BME280_pressure;Samples;Min_cycle;Max_cycle;Signal;HPM_P1;HPM_P2
2023/12/05 00:01:15;;;;;;;22.83;12.32;;;-6.00;96.20;;;;;;4939518;29;20081;-79
2023/12/05 00:03:41;;;;;;;19.80;11.85;;;-6.00;96.20;;;;;;4960650;29;20085;-78
2023/12/05 00:06:10;;;;;;;16.63;10.73;;;-6.00;96.30;;;;;;4956876;29;20034;-81
2023/12/05 00:08:36;;;;;;;20.92;11.90;;;-6.00;96.20;;;;;;4955947;29;20059;-79
2023/12/05 00:11:06;;;;;;;23.73;11.98;;;-5.90;96.30;;;;;;4955890;29;20428;-79
2023/12/05 00:13:33;;;;;;;25.25;12.57;;;-5.90;96.20;;;;;;4952349;28;20029;-79
2023/12/05 00:15:59;;;;;;;20.55;12.57;;;-5.90;96.10;;;;;;4955356;29;20106;-79
2023/12/05 00:18:26;;;;;;;17.33;9.63;;;-6.00;96.10;;;;;;4955293;29;20039;-79
2023/12/05 00:20:52;;;;;;;22.50;11.52;;;-5.90;96.20;;;;;;4955034;29;20027;-79
2023/12/05 00:23:18;;;;;;;24.48;10.90;;;-5.90;96.20;;;;;;4955152;29;20042;-79
2023/12/05 00:25:44;;;;;;;20.95;11.45;;;-5.80;96.30;;;;;;4955240;29;20477;-80
2023/12/05 00:28:10;;;;;;;17.95;10.38;;;-5.80;96.30;;;;;;4951660;29;20448;-79
2023/12/05 00:30:36;;;;;;;21.50;11.18;;;-5.70;96.30;;;;;;4953975;28;20025;-79
2023/12/05 00:33:02;;;;;;;19.05;10.65;;;-5.70;96.20;;;;;;4954887;29;20034;-78
2023/12/05 00:35:28;;;;;;;21.30;10.63;;;-5.70;96.10;;;;;;4954886;29;20023;-79
2023/12/05 00:37:54;;;;;;;20.83;11.43;;;-5.70;96.00;;;;;;4954884;29;20035;-81
2023/12/05 00:40:20;;;;;;;19.98;11.50;;;-5.70;96.10;;;;;;4954915;29;20469;-79
2023/12/05 00:42:46;;;;;;;21.92;11.50;;;-5.60;96.40;;;;;;4954679;29;20027;-79
2023/12/05 00:45:13;;;;;;;26.58;12.85;;;-5.60;96.10;;;;;;4954998;29;20032;-80
2023/12/05 00:47:39;;;;;;;;;;;-5.60;96.20;;;;;;4946589;28;20091;-80
2023/12/05 00:50:06;;;;;;;20.98;10.55;;;-5.60;96.40;;;;;;4953446;29;19937;-80
2023/12/05 00:52:31;;;;;;;24.02;12.13;;;-5.60;96.40;;;;;;4954685;29;20050;-81
2023/12/05 00:54:57;;;;;;;20.95;12.18;;;-5.50;96.40;;;;;;4954719;29;20121;-80
2023/12/05 00:57:23;;;;;;;21.20;10.48;;;-5.50;96.30;;;;;;4955340;29;20027;-79
2023/12/05 00:59:49;;;;;;;19.60;12.75;;;-5.50;96.20;;;;;;4958033;29;20023;-78
2023/12/05 01:02:15;;;;;;;19.85;10.82;;;-5.50;96.20;;;;;;4958370;29;20038;-79
2023/12/05 01:04:41;;;;;;;17.45;11.38;;;-5.50;96.20;;;;;;4939915;29;20476;-80
2023/12/05 01:07:07;;;;;;;23.58;13.23;;;-5.50;96.20;;;;;;4955236;29;20436;-81
2023/12/05 01:09:33;;;;;;;19.05;10.85;;;-5.40;96.30;;;;;;4952768;29;20023;-79
2023/12/05 01:11:59;;;;;;;19.60;10.48;;;-5.40;96.30;;;;;;4953580;28;20099;-80
2023/12/05 01:14:26;;;;;;;21.05;12.73;;;-5.40;96.50;;;;;;4954251;29;20126;-80
2023/12/05 01:16:52;;;;;;;17.98;10.18;;;-5.40;96.20;;;;;;4954271;29;20031;-80
2023/12/05 01:19:18;;;;;;;24.30;12.80;;;-5.40;96.20;;;;;;4953310;29;20031;-79
2023/12/05 01:21:43;;;;;;;23.42;11.60;;;-5.30;96.20;;;;;;4949767;29;20452;-79
2023/12/05 01:24:09;;;;;;;21.48;12.18;;;-5.30;96.20;;;;;;4928218;29;20036;-80
2023/12/05 01:26:35;;;;;;;23.63;11.77;;;-5.30;96.20;;;;;;4954065;29;20054;-82
2023/12/05 01:29:02;;;;;;;22.35;11.75;;;-5.30;96.10;;;;;;4954684;29;20166;-80
2023/12/05 01:31:28;;;;;;;;;;;-5.30;96.10;;;;;;4957934;29;20027;-78
2023/12/05 01:33:54;;;;;;;24.58;12.00;;;-5.30;96.10;;;;;;4935603;29;19907;-78
2023/12/05 01:36:20;;;;;;;20.75;12.30;;;-5.30;95.90;;;;;;4948570;28;20042;-79
2023/12/05 01:38:46;;;;;;;22.27;13.13;;;-5.30;96.00;;;;;;4954441;29;20023;-79
2023/12/05 01:41:12;;;;;;;18.40;11.05;;;-5.40;96.00;;;;;;4953850;29;20509;-78
2023/12/05 01:43:37;;;;;;;20.13;12.13;;;-5.30;96.00;;;;;;4956190;29;20043;-80
2023/12/05 01:46:04;;;;;;;21.48;11.70;;;-5.30;96.00;;;;;;4953497;29;20087;-80
2023/12/05 01:48:31;;;;;;;21.02;11.57;;;-5.30;96.10;;;;;;4954148;29;20047;-80
2023/12/05 01:50:59;;;;;;;26.85;13.20;;;-5.30;96.10;;;;;;4953169;29;20023;-81
2023/12/05 01:53:24;;;;;;;;;;;-5.30;96.00;;;;;;4954878;29;20031;-81
2023/12/05 01:55:51;;;;;;;20.30;11.90;;;-5.30;96.10;;;;;;4954535;29;20287;-80
2023/12/05 01:58:18;;;;;;;25.27;12.88;;;-5.30;96.10;;;;;;4955245;29;20019;-80
2023/12/05 02:00:44;;;;;;;19.75;12.13;;;-5.20;96.40;;;;;;4954641;29;20054;-79
2023/12/05 02:03:11;;;;;;;19.02;11.65;;;-5.20;96.30;;;;;;4954123;29;20035;-80
2023/12/05 02:05:37;;;;;;;18.48;11.75;;;-5.20;96.30;;;;;;4952372;29;20127;-80
2023/12/05 02:08:03;;;;;;;22.63;12.82;;;-5.20;96.30;;;;;;4952801;29;20066;-81
2023/12/05 02:10:29;;;;;;;23.73;13.15;;;-5.20;96.30;;;;;;4954076;29;20138;-79
2023/12/05 02:12:55;;;;;;;20.17;10.38;;;-5.20;96.20;;;;;;4942694;29;20042;-79
2023/12/05 02:15:21;;;;;;;24.83;13.13;;;-5.10;96.20;;;;;;4952501;29;20115;-80
2023/12/05 02:18:06;;;;;;;24.33;13.23;;;-5.10;96.30;;;;;;4936658;29;20520;-79
2023/12/05 02:20:38;;;;;;;23.45;13.20;;;-5.10;96.20;;;;;;4953719;29;20159;-79
2023/12/05 02:23:24;;;;;;;22.65;11.90;;;-5.10;96.20;;;;;;4939912;29;20066;-79
2023/12/05 02:26:20;;;;;;;14.98;9.38;;;-5.10;96.00;;;;;;4952535;29;20081;-78
2023/12/05 02:28:46;;;;;;;20.27;11.35;;;-5.10;96.10;;;;;;4951225;29;20476;-78
2023/12/05 02:31:12;;;;;;;19.83;10.38;;;-5.10;96.20;;;;;;4952495;28;20042;-79
2023/12/05 02:33:39;;;;;;;21.92;11.82;;;-5.10;96.30;;;;;;4939860;29;20028;-78
2023/12/05 02:36:19;;;;;;;23.90;11.82;;;-5.10;96.30;;;;;;4953468;29;20020;-79
2023/12/05 02:38:51;;;;;;;21.95;11.85;;;-5.10;96.10;;;;;;4953297;29;20088;-80
2023/12/05 02:41:24;;;;;;;24.95;13.00;;;-5.10;96.00;;;;;;4932793;29;20400;-79
2023/12/05 02:43:58;;;;;;;18.98;11.07;;;-5.10;96.10;;;;;;4952887;29;20027;-81
2023/12/05 02:46:24;;;;;;;25.83;12.75;;;-5.10;96.10;;;;;;4956873;29;20019;-81
2023/12/05 02:48:52;;;;;;;20.52;10.07;;;-5.10;96.10;;;;;;4952984;29;20456;-79
2023/12/05 02:51:18;;;;;;;18.27;11.30;;;-5.10;96.00;;;;;;4953174;29;20385;-79
2023/12/05 02:53:43;;;;;;;19.75;10.95;;;-5.10;96.10;;;;;;4954763;28;20098;-80
2023/12/05 02:56:09;;;;;;;18.90;11.23;;;-5.20;96.20;;;;;;4956535;29;20066;-80
2023/12/05 02:58:35;;;;;;;22.00;13.25;;;-5.20;96.20;;;;;;4942384;29;20124;-81
2023/12/05 03:01:02;;;;;;;19.65;12.38;;;-5.20;96.10;;;;;;4956798;29;20156;-79
2023/12/05 03:03:28;;;;;;;22.53;13.57;;;-5.20;96.00;;;;;;4959825;29;20043;-82
2023/12/05 03:05:53;;;;;;;22.30;11.90;;;-5.20;95.90;;;;;;4971203;29;20265;-80
2023/12/05 03:08:19;;;;;;;20.75;10.50;;;-5.20;95.90;;;;;;4956583;29;20086;-81
2023/12/05 03:10:45;;;;;;;19.65;12.00;;;-5.20;96.00;;;;;;4956532;29;20037;-80
2023/12/05 03:13:11;;;;;;;24.63;11.70;;;-5.20;96.40;;;;;;4955454;29;20035;-80
2023/12/05 03:15:37;;;;;;;20.05;11.57;;;-5.20;96.80;;;;;;4956942;29;20023;-80
2023/12/05 03:18:03;;;;;;;20.08;11.75;;;-5.20;96.90;;;;;;4956515;29;20560;-80
2023/12/05 03:20:29;;;;;;;18.27;10.60;;;-5.20;96.80;;;;;;4956421;29;20035;-79
2023/12/05 03:22:54;;;;;;;19.83;10.80;;;-5.20;96.70;;;;;;4942325;29;20114;-79
2023/12/05 03:25:20;;;;;;;26.08;11.60;;;-5.20;96.70;;;;;;4943300;29;20480;-81
2023/12/05 03:27:46;;;;;;;22.73;12.02;;;-5.20;96.70;;;;;;4956873;29;20102;-80
2023/12/05 03:30:12;;;;;;;23.23;11.77;;;-5.20;96.60;;;;;;4957316;28;20029;-79
2023/12/05 03:32:38;;;;;;;18.05;11.88;;;-5.20;96.40;;;;;;4964180;29;20043;-80
2023/12/05 03:35:04;;;;;;;22.42;11.57;;;-5.20;96.40;;;;;;4957829;29;20369;-80
2023/12/05 03:37:30;;;;;;;19.67;10.23;;;-5.20;96.30;;;;;;4956682;29;20027;-79
2023/12/05 03:39:56;;;;;;;22.63;11.35;;;-5.20;96.30;;;;;;4956579;29;20038;-80
2023/12/05 03:42:22;;;;;;;22.80;12.15;;;-5.20;96.20;;;;;;4956071;29;20023;-80
2023/12/05 03:44:47;;;;;;;18.77;11.15;;;-5.30;96.30;;;;;;4956019;29;20031;-80
2023/12/05 03:47:15;;;;;;;21.48;11.98;;;-5.30;96.10;;;;;;4954743;28;20047;-79
2023/12/05 03:49:40;;;;;;;16.25;7.63;;;-5.30;96.00;;;;;;4956040;29;20043;-78
2023/12/05 03:52:06;;;;;;;22.55;11.32;;;-5.30;96.10;;;;;;4955135;28;20031;-80
2023/12/05 03:54:32;;;;;;;21.13;12.20;;;-5.30;96.00;;;;;;4956001;29;20029;-79
2023/12/05 03:56:58;;;;;;;21.17;12.50;;;-5.40;95.80;;;;;;4956402;29;20506;-77
2023/12/05 03:59:24;;;;;;;22.63;12.70;;;-5.40;95.70;;;;;;4958245;29;20019;-79
2023/12/05 04:01:52;;;;;;;23.20;12.80;;;-5.40;95.60;;;;;;4956345;29;20027;-80
2023/12/05 04:04:18;;;;;;;20.20;10.98;;;-5.50;96.10;;;;;;4954727;28;20405;-78
2023/12/05 04:06:43;;;;;;;23.15;13.25;;;-5.50;96.20;;;;;;4955873;29;20032;-79
2023/12/05 04:09:09;;;;;;;21.00;11.18;;;-5.50;96.30;;;;;;4955906;29;20023;-78
2023/12/05 04:11:38;;;;;;;24.05;12.82;;;-5.50;96.30;;;;;;4955795;29;20039;-82
2023/12/05 04:14:04;;;;;;;19.23;9.45;;;-5.60;96.30;;;;;;4955421;29;20038;-78
2023/12/05 04:16:30;;;;;;;21.85;12.05;;;-5.60;96.20;;;;;;4955312;29;20396;-80
2023/12/05 04:18:56;;;;;;;25.40;12.02;;;-5.70;96.00;;;;;;4955427;29;20366;-80
2023/12/05 04:21:22;;;;;;;20.80;11.90;;;-5.70;95.90;;;;;;4931800;29;20032;-79
2023/12/05 04:23:48;;;;;;;24.75;11.60;;;-5.70;95.80;;;;;;4944955;29;20400;-81
2023/12/05 04:26:18;;;;;;;20.52;11.40;;;-5.80;95.70;;;;;;4955216;29;20027;-81
2023/12/05 04:28:44;;;;;;;26.35;13.43;;;-5.80;95.80;;;;;;4955549;29;20019;-81
2023/12/05 04:31:13;;;;;;;27.05;13.32;;;-5.80;95.80;;;;;;4954761;29;20831;-81
2023/12/05 04:33:40;;;;;;;28.55;16.02;;;-5.90;95.70;;;;;;4939893;29;20121;-81
2023/12/05 04:36:07;;;;;;;28.05;13.77;;;-5.90;95.50;;;;;;4959433;29;20027;-82
2023/12/05 04:38:36;;;;;;;22.50;14.93;;;-5.90;95.40;;;;;;4959688;29;20029;-82
2023/12/05 04:41:03;;;;;;;30.17;13.68;;;-6.00;95.30;;;;;;4961371;29;20079;-82
2023/12/05 04:43:30;;;;;;;20.40;13.20;;;-6.00;95.20;;;;;;4959058;29;20035;-81
2023/12/05 04:45:57;;;;;;;26.70;14.55;;;-6.00;95.10;;;;;;4956949;29;20081;-82
2023/12/05 04:48:22;;;;;;;25.23;12.60;;;-6.00;95.00;;;;;;4937190;29;20051;-82
2023/12/05 04:50:48;;;;;;;28.42;13.80;;;-6.00;95.40;;;;;;4943148;29;20075;-81
2023/12/05 04:53:14;;;;;;;22.15;13.43;;;-6.10;95.40;;;;;;4952499;29;20035;-82
2023/12/05 04:55:40;;;;;;;23.48;12.23;;;-6.10;95.40;;;;;;4953589;29;20022;-81
2023/12/05 04:58:06;;;;;;;24.23;11.77;;;-6.10;95.40;;;;;;4957794;29;20122;-80
2023/12/05 05:00:32;;;;;;;27.35;13.70;;;-6.10;95.40;;;;;;4960542;29;20023;-81
2023/12/05 05:02:58;;;;;;;24.00;14.13;;;-6.20;95.40;;;;;;4963229;29;20031;-81
2023/12/05 05:05:24;;;;;;;18.95;11.63;;;-6.20;96.00;;;;;;4961517;29;20580;-80
2023/12/05 05:07:49;;;;;;;30.45;13.98;;;-6.20;95.70;;;;;;4959531;29;20460;-80
2023/12/05 05:10:15;;;;;;;25.52;13.95;;;-6.30;95.60;;;;;;4954872;29;20511;-80
2023/12/05 05:12:41;;;;;;;22.55;13.15;;;-6.30;95.50;;;;;;4953406;28;20137;-80
2023/12/05 05:15:08;;;;;;;25.23;12.50;;;-6.30;95.50;;;;;;4933658;29;20488;-80
2023/12/05 05:17:34;;;;;;;22.02;11.20;;;-6.30;95.50;;;;;;4932917;29;20034;-81
2023/12/05 05:19:59;;;;;;;20.80;12.05;;;-6.40;95.40;;;;;;4954590;29;20476;-79
2023/12/05 05:22:26;;;;;;;20.55;11.75;;;-6.40;95.30;;;;;;4943042;29;20032;-81
2023/12/05 05:24:52;;;;;;;20.65;12.45;;;-6.40;95.30;;;;;;4950740;29;20032;-78
2023/12/05 05:27:18;;;;;;;18.60;12.05;;;-6.50;95.20;;;;;;4954175;29;20075;-79
2023/12/05 05:29:44;;;;;;;19.92;11.65;;;-6.50;95.20;;;;;;4952658;29;20031;-79
2023/12/05 05:32:09;;;;;;;25.40;12.27;;;-6.50;95.20;;;;;;4936578;29;20440;-78
2023/12/05 05:34:35;;;;;;;22.70;11.52;;;-6.50;95.10;;;;;;4936778;29;20090;-79
2023/12/05 05:37:01;;;;;;;21.80;12.85;;;-6.50;95.10;;;;;;4953578;29;20058;-80
2023/12/05 05:39:27;;;;;;;21.20;11.30;;;-6.60;95.20;;;;;;4954581;29;20476;-81
2023/12/05 05:41:53;;;;;;;17.30;11.52;;;-6.60;95.40;;;;;;4953730;29;20119;-80
2023/12/05 05:44:19;;;;;;;28.00;12.25;;;-6.60;95.60;;;;;;4953772;29;20040;-79
2023/12/05 05:46:44;;;;;;;23.40;12.48;;;-6.60;95.60;;;;;;4934905;29;20484;-79
2023/12/05 05:49:10;;;;;;;27.75;13.68;;;-6.70;95.50;;;;;;4953553;29;20126;-79
2023/12/05 05:51:36;;;;;;;29.05;14.20;;;-6.70;95.50;;;;;;4950584;28;20110;-80
2023/12/05 05:54:03;;;;;;;23.13;11.63;;;-6.70;95.50;;;;;;4953416;29;20035;-81
2023/12/05 05:56:29;;;;;;;22.30;11.98;;;-6.80;95.60;;;;;;4952694;29;20097;-79
2023/12/05 05:58:55;;;;;;;21.13;13.10;;;-6.80;95.60;;;;;;4953625;29;20080;-78
2023/12/05 06:01:21;;;;;;;20.58;11.02;;;-6.80;95.90;;;;;;4936840;29;20066;-82
2023/12/05 06:03:46;;;;;;;24.45;11.57;;;-6.80;96.10;;;;;;4954261;29;20504;-81
2023/12/05 06:06:12;;;;;;;22.65;10.70;;;-6.80;96.20;;;;;;4936376;29;20429;-79
2023/12/05 06:08:38;;;;;;;25.20;14.43;;;-6.80;96.20;;;;;;4938813;29;20038;-81
2023/12/05 06:11:04;;;;;;;22.95;13.63;;;-6.80;96.00;;;;;;4933135;29;20036;-79
2023/12/05 06:13:30;;;;;;;22.83;13.00;;;-6.80;95.90;;;;;;4948729;29;20800;-80
2023/12/05 06:15:56;;;;;;;27.60;12.77;;;-6.80;95.80;;;;;;4953334;29;20130;-81
2023/12/05 06:18:22;;;;;;;15.80;7.32;;;-6.80;95.80;;;;;;4955601;29;20039;-79
2023/12/05 06:20:51;;;;;;;23.42;11.93;;;-6.80;95.70;;;;;;4953301;29;20074;-80
2023/12/05 06:23:17;;;;;;;21.10;10.85;;;-6.80;95.80;;;;;;4947031;29;20489;-80
2023/12/05 06:25:43;;;;;;;22.77;12.07;;;-6.80;96.00;;;;;;4955359;29;20098;-80
2023/12/05 06:28:09;;;;;;;21.27;10.70;;;-6.80;96.00;;;;;;4955878;28;20027;-80
2023/12/05 06:30:35;;;;;;;23.00;14.60;;;-6.80;96.00;;;;;;4957564;29;20067;-81
2023/12/05 06:33:00;;;;;;;28.38;14.95;;;-6.80;95.80;;;;;;4957078;29;20027;-82
2023/12/05 06:35:26;;;;;;;24.35;13.68;;;-6.70;95.70;;;;;;4957801;29;20477;-78
2023/12/05 06:37:52;;;;;;;25.65;11.68;;;-6.70;95.60;;;;;;4957310;29;20535;-81
2023/12/05 06:40:18;;;;;;;24.25;14.10;;;-6.80;95.60;;;;;;4957226;29;20023;-80
2023/12/05 06:42:45;;;;;;;21.85;12.60;;;-6.80;95.60;;;;;;4956964;29;20031;-79
2023/12/05 06:45:11;;;;;;;19.23;11.05;;;-6.70;95.60;;;;;;4956693;29;20035;-79
2023/12/05 06:47:40;;;;;;;19.38;9.90;;;-6.70;95.70;;;;;;4955230;29;20492;-80
2023/12/05 06:50:10;;;;;;;20.88;11.43;;;-6.70;95.70;;;;;;4956643;29;20416;-79
2023/12/05 06:52:37;;;;;;;23.35;11.68;;;-6.70;95.80;;;;;;4937256;29;20392;-79
2023/12/05 06:55:04;;;;;;;27.23;13.43;;;-6.70;95.80;;;;;;4956625;29;20027;-81
2023/12/05 06:57:34;;;;;;;23.88;12.10;;;-6.60;95.70;;;;;;4956716;29;20027;-81
2023/12/05 07:00:00;;;;;;;20.33;9.35;;;-6.60;95.60;;;;;;4956735;29;20420;-80
2023/12/05 07:02:26;;;;;;;27.23;13.55;;;-6.60;95.60;;;;;;4956304;29;20025;-79
2023/12/05 07:04:52;;;;;;;21.52;10.95;;;-6.50;95.60;;;;;;4956477;29;20548;-80
2023/12/05 07:07:18;;;;;;;23.73;11.25;;;-6.50;95.40;;;;;;4956596;29;20107;-78
2023/12/05 07:09:44;;;;;;;18.45;9.52;;;-6.50;95.20;;;;;;4955582;29;20059;-79
2023/12/05 07:12:09;;;;;;;25.92;12.63;;;-6.50;95.20;;;;;;4956608;29;20378;-79
2023/12/05 07:14:35;;;;;;;25.70;12.50;;;-6.50;95.10;;;;;;4956192;29;20090;-78
2023/12/05 07:17:02;;;;;;;24.60;13.43;;;-6.50;95.10;;;;;;4956437;29;20044;-79
2023/12/05 07:19:28;;;;;;;23.97;13.33;;;-6.50;95.10;;;;;;4956278;29;20026;-80
2023/12/05 07:21:54;;;;;;;28.20;13.70;;;-6.50;95.20;;;;;;4951262;29;20369;-79
2023/12/05 07:24:20;;;;;;;27.95;14.80;;;-6.50;95.10;;;;;;4952573;29;20031;-80
2023/12/05 07:26:48;;;;;;;24.90;14.45;;;-6.50;94.90;;;;;;4946618;29;20023;-81
2023/12/05 07:29:14;;;;;;;27.52;14.13;;;-6.60;94.80;;;;;;4936139;29;20042;-80
2023/12/05 07:31:40;;;;;;;18.73;10.68;;;-6.60;94.70;;;;;;4952431;29;20202;-80
2023/12/05 07:34:06;;;;;;;23.42;12.00;;;-6.60;94.80;;;;;;4956334;29;20115;-81
2023/12/05 07:36:32;;;;;;;29.45;16.30;;;-6.60;94.90;;;;;;4955034;29;20031;-81
2023/12/05 07:38:59;;;;;;;15.20;8.60;;;-6.60;94.90;;;;;;4954286;28;20031;-81
2023/12/05 07:41:24;;;;;;;22.70;13.73;;;-6.60;94.90;;;;;;4938528;29;20147;-82
2023/12/05 07:43:51;;;;;;;27.75;13.50;;;-6.60;95.00;;;;;;4956517;29;20532;-80
2023/12/05 07:46:18;;;;;;;22.08;13.60;;;-6.60;95.00;;;;;;4958184;29;20024;-80
2023/12/05 07:48:44;;;;;;;31.35;14.13;;;-6.60;95.10;;;;;;4955529;28;20055;-81
2023/12/05 07:51:17;;;;;;;26.00;13.70;;;-6.60;95.10;;;;;;4946449;29;20031;-80
2023/12/05 07:53:44;;;;;;;26.55;14.45;;;-6.50;95.10;;;;;;4968792;29;20027;-82
2023/12/05 07:56:10;;;;;;;27.48;14.52;;;-6.50;95.20;;;;;;4952268;29;20020;-83
2023/12/05 07:58:36;;;;;;;26.77;13.80;;;-6.40;95.40;;;;;;4959943;29;20035;-81
2023/12/05 08:01:02;;;;;;;27.80;15.60;;;-6.30;95.70;;;;;;4958572;29;20030;-83
2023/12/05 08:03:29;;;;;;;27.98;14.85;;;-6.30;95.00;;;;;;4965932;29;20042;-82
2023/12/05 08:05:55;;;;;;;26.08;13.48;;;-6.20;94.70;;;;;;4956953;29;20019;-82
2023/12/05 08:08:22;;;;;;;39.35;15.70;;;-6.10;94.90;;;;;;4959359;29;20121;-81
2023/12/05 08:10:48;;;;;;;34.10;17.67;;;-6.10;94.80;;;;;;4946153;29;20024;-80
2023/12/05 08:13:14;;;;;;;31.95;16.45;;;-6.00;94.50;;;;;;4959161;29;20027;-80
2023/12/05 08:15:40;;;;;;;32.88;16.90;;;-6.00;94.60;;;;;;4938982;29;20170;-83
2023/12/05 08:18:05;;;;;;;23.67;13.02;;;-5.90;94.50;;;;;;4955266;29;20039;-79
2023/12/05 08:20:31;;;;;;;20.23;13.80;;;-6.00;94.50;;;;;;4937768;29;20533;-80
2023/12/05 08:22:57;;;;;;;24.83;13.25;;;-6.00;94.20;;;;;;4954871;29;20040;-79
2023/12/05 08:25:23;;;;;;;31.83;15.65;;;-6.10;94.10;;;;;;4934591;29;20023;-81
2023/12/05 08:27:49;;;;;;;32.22;18.45;;;-6.10;94.10;;;;;;4930794;29;20038;-82
2023/12/05 08:30:15;;;;;;;29.08;15.80;;;-6.20;94.10;;;;;;4955560;29;20043;-82
2023/12/05 08:32:41;;;;;;;24.98;12.43;;;-6.30;94.00;;;;;;4935990;29;20059;-82
2023/12/05 08:35:08;;;;;;;27.00;14.13;;;-6.30;94.40;;;;;;4952018;29;22079;-81
2023/12/05 08:37:34;;;;;;;27.40;14.50;;;-6.30;95.00;;;;;;4950156;29;20090;-81
2023/12/05 08:39:59;;;;;;;27.73;11.38;;;-6.40;95.00;;;;;;4957429;29;20023;-80
2023/12/05 08:42:28;;;;;;;19.33;10.07;;;-6.40;95.30;;;;;;4937831;29;20035;-82
2023/12/05 08:44:54;;;;;;;23.98;10.32;;;-6.40;95.20;;;;;;4937346;29;20055;-81
2023/12/05 08:47:20;;;;;;;22.13;13.20;;;-6.50;95.10;;;;;;4954653;29;20054;-81
2023/12/05 08:49:46;;;;;;;22.58;10.90;;;-6.50;95.20;;;;;;4954484;29;20039;-79
2023/12/05 08:52:12;;;;;;;20.98;11.07;;;-6.50;95.50;;;;;;4937066;29;20115;-81
2023/12/05 08:54:38;;;;;;;23.58;12.30;;;-6.40;95.50;;;;;;4954714;29;20019;-81
2023/12/05 08:57:04;;;;;;;23.07;11.73;;;-6.50;95.60;;;;;;4948994;29;20027;-79
2023/12/05 08:59:30;;;;;;;16.35;10.38;;;-6.40;95.60;;;;;;4953959;29;20623;-77
2023/12/05 09:01:56;;;;;;;25.88;13.65;;;-6.40;95.50;;;;;;4948001;29;20027;-78
2023/12/05 09:04:22;;;;;;;26.98;12.40;;;-6.40;95.40;;;;;;4954064;29;20035;-79
2023/12/05 09:06:47;;;;;;;21.85;12.63;;;-6.40;95.80;;;;;;4954294;29;20472;-78
2023/12/05 09:09:13;;;;;;;15.93;10.65;;;-6.30;95.70;;;;;;4954173;29;20027;-79
2023/12/05 09:11:39;;;;;;;18.92;10.57;;;-6.40;95.60;;;;;;4954311;29;20167;-79
2023/12/05 09:14:05;;;;;;;22.35;12.25;;;-6.30;95.70;;;;;;4954911;29;20144;-77
2023/12/05 09:16:32;;;;;;;20.23;11.15;;;-6.40;95.60;;;;;;4954365;29;20399;-78
2023/12/05 09:18:58;;;;;;;18.37;10.40;;;-6.40;95.60;;;;;;4953277;29;20019;-79
2023/12/05 09:21:24;;;;;;;21.38;11.20;;;-6.40;95.80;;;;;;4953763;29;20251;-80
2023/12/05 09:23:50;;;;;;;24.38;13.18;;;-6.40;95.80;;;;;;4948284;29;20027;-78
2023/12/05 09:26:16;;;;;;;23.50;13.02;;;-6.40;95.90;;;;;;4946966;29;20027;-77
2023/12/05 09:28:41;;;;;;;18.67;12.48;;;-6.40;95.90;;;;;;4954355;29;20034;-78
2023/12/05 09:31:07;;;;;;;19.73;12.70;;;-6.40;95.90;;;;;;4954250;29;20031;-77
2023/12/05 09:33:37;;;;;;;22.45;12.15;;;-6.40;95.90;;;;;;4953805;29;20453;-81
2023/12/05 09:36:04;;;;;;;18.63;10.77;;;-6.40;96.10;;;;;;4952604;29;20118;-78
2023/12/05 09:38:30;;;;;;;17.60;9.98;;;-6.40;95.90;;;;;;4949285;29;20046;-78
2023/12/05 09:40:57;;;;;;;20.77;10.45;;;-6.40;96.00;;;;;;4953986;29;20559;-78
2023/12/05 09:43:23;;;;;;;20.52;10.93;;;-6.40;96.10;;;;;;4954013;29;20552;-79
2023/12/05 09:46:01;;;;;;;22.13;14.13;;;-6.40;96.30;;;;;;4953949;29;20023;-77
2023/12/05 09:48:37;;;;;;;22.05;12.60;;;-6.40;96.30;;;;;;4950823;28;20530;-78
2023/12/05 09:51:03;;;;;;;19.00;10.85;;;-6.40;96.20;;;;;;4953910;29;20066;-78
2023/12/05 09:53:30;;;;;;;21.90;13.20;;;-6.40;96.40;;;;;;4953760;29;20038;-79
2023/12/05 09:55:56;;;;;;;17.55;10.40;;;-6.40;96.80;;;;;;4953602;29;20027;-78
2023/12/05 09:58:23;;;;;;;26.33;12.90;;;-6.30;96.50;;;;;;4952174;29;20027;-78
2023/12/05 10:00:52;;;;;;;21.25;13.13;;;-6.30;96.20;;;;;;4951973;29;20392;-79
2023/12/05 10:03:18;;;;;;;22.10;11.10;;;-6.30;96.00;;;;;;4956271;28;20078;-78
2023/12/05 10:05:48;;;;;;;18.98;10.15;;;-6.40;96.00;;;;;;4951198;29;20023;-81
2023/12/05 10:08:15;;;;;;;20.00;10.23;;;-6.40;96.20;;;;;;4957485;29;20027;-81
2023/12/05 10:10:46;;;;;;;18.77;9.23;;;-6.30;96.50;;;;;;4953673;29;20042;-81
2023/12/05 10:13:12;;;;;;;18.58;9.60;;;-6.30;96.50;;;;;;4957264;29;20015;-80
2023/12/05 10:15:43;;;;;;;21.23;10.35;;;-6.30;96.60;;;;;;4956643;29;20039;-80
2023/12/05 10:18:09;;;;;;;19.77;10.98;;;-6.30;96.70;;;;;;4946756;29;20021;-78
2023/12/05 10:20:38;;;;;;;18.95;11.13;;;-6.30;96.70;;;;;;4957524;29;20027;-81
2023/12/05 10:23:04;;;;;;;23.05;9.82;;;-6.20;96.80;;;;;;4943816;29;20043;-78
2023/12/05 10:25:29;;;;;;;16.27;11.27;;;-6.20;96.50;;;;;;4957105;29;20023;-78
2023/12/05 10:28:06;;;;;;;12.07;7.32;;;-6.20;96.20;;;;;;4956807;29;20109;-80
2023/12/05 10:30:39;;;;;;;16.70;8.90;;;-6.20;96.30;;;;;;4955654;29;20031;-80
2023/12/05 10:33:16;;;;;;;14.27;9.30;;;-6.20;96.50;;;;;;4957159;29;20024;-79
2023/12/05 10:35:43;;;;;;;20.73;11.48;;;-6.20;96.50;;;;;;4955981;29;20392;-79
2023/12/05 10:38:11;;;;;;;17.35;9.07;;;-6.20;96.40;;;;;;4939626;29;20031;-80
2023/12/05 10:40:57;;;;;;;19.55;9.52;;;-6.20;96.40;;;;;;4957456;29;20023;-81
2023/12/05 10:43:24;;;;;;;18.63;12.00;;;-6.20;96.30;;;;;;4936993;29;20389;-80
2023/12/05 10:45:51;;;;;;;16.55;8.88;;;-6.30;96.30;;;;;;4944355;29;20029;-79
2023/12/05 10:48:18;;;;;;;19.58;9.98;;;-6.30;96.30;;;;;;4957211;29;20046;-80
2023/12/05 10:50:46;;;;;;;19.38;8.82;;;-6.30;96.40;;;;;;4957220;29;20023;-80
2023/12/05 10:53:13;;;;;;;20.67;12.38;;;-6.20;96.60;;;;;;4957113;29;20054;-81
2023/12/05 10:55:39;;;;;;;19.10;11.40;;;-6.20;96.60;;;;;;4957239;29;20023;-81
2023/12/05 10:58:05;;;;;;;22.08;11.88;;;-6.10;96.70;;;;;;4957136;29;20536;-78
2023/12/05 11:00:31;;;;;;;19.38;10.60;;;-6.10;96.60;;;;;;4959987;29;20035;-79
2023/12/05 11:02:57;;;;;;;18.42;8.73;;;-6.00;96.80;;;;;;4951077;29;20045;-80
2023/12/05 11:05:24;;;;;;;13.20;6.40;;;-6.00;96.70;;;;;;4960822;29;20118;-78
2023/12/05 11:07:52;;;;;;;17.05;9.15;;;-5.90;96.90;;;;;;4940212;29;20030;-79
2023/12/05 11:10:18;;;;;;;18.10;9.23;;;-5.90;96.80;;;;;;4936247;29;20035;-79
2023/12/05 11:12:49;;;;;;;18.60;11.15;;;-5.90;96.80;;;;;;4959697;29;20015;-79
2023/12/05 11:15:18;;;;;;;20.73;11.27;;;-5.80;96.80;;;;;;4960014;29;20042;-84
2023/12/05 11:17:59;;;;;;;15.55;8.77;;;-5.80;96.60;;;;;;4948238;29;20421;-85
2023/12/05 11:21:03;;;;;;;14.43;8.68;;;-5.80;96.70;;;;;;4950068;29;20052;-84
2023/12/05 11:23:41;;;;;;;15.13;8.55;;;-5.80;96.60;;;;;;4938758;29;20078;-85
2023/12/05 11:26:58;;;;;;;22.00;11.45;;;-5.80;96.60;;;;;;4932289;29;20175;-84
2023/12/05 11:29:53;;;;;;;17.70;11.30;;;-5.80;96.40;;;;;;4896179;29;20035;-84
2023/12/05 11:32:48;;;;;;;23.50;13.13;;;-5.80;96.10;;;;;;4960770;29;20074;-85
2023/12/05 11:35:28;;;;;;;21.23;10.88;;;-5.80;95.80;;;;;;4961033;29;20046;-81
2023/12/05 11:38:13;;;;;;;21.45;13.18;;;-5.80;95.80;;;;;;4957412;29;20023;-83
2023/12/05 11:40:40;;;;;;;21.90;11.90;;;-5.90;95.80;;;;;;4956777;29;20027;-81
2023/12/05 11:43:07;;;;;;;20.52;9.93;;;-5.90;95.90;;;;;;4952139;29;20468;-82
2023/12/05 11:45:40;;;;;;;27.73;13.60;;;-5.80;96.10;;;;;;4936591;29;20055;-83
2023/12/05 11:48:09;;;;;;;18.77;10.93;;;-5.80;96.30;;;;;;4942851;29;20047;-83
2023/12/05 11:50:47;;;;;;;23.92;11.93;;;-5.80;96.30;;;;;;4947414;29;20042;-83
2023/12/05 11:53:19;;;;;;;18.80;10.07;;;-5.70;96.40;;;;;;4944483;29;20595;-83
2023/12/05 11:55:49;;;;;;;15.13;7.57;;;-5.70;96.40;;;;;;4949704;29;20046;-81
2023/12/05 11:58:34;;;;;;;19.35;9.88;;;-5.70;96.80;;;;;;4952300;29;20031;-82
2023/12/05 12:01:09;;;;;;;14.48;9.18;;;-5.70;96.50;;;;;;4934642;29;20552;-79
2023/12/05 12:03:52;;;;;;;17.77;10.63;;;-5.60;96.60;;;;;;4936200;29;20122;-79
2023/12/05 12:06:23;;;;;;;17.63;9.93;;;-5.60;96.40;;;;;;4925497;29;20028;-78
2023/12/05 12:08:53;;;;;;;30.92;13.07;;;-5.60;96.30;;;;;;4936602;29;20028;-78
2023/12/05 12:11:23;;;;;;;26.35;13.57;;;-5.60;96.30;;;;;;4935470;29;20051;-79
2023/12/05 12:13:50;;;;;;;21.00;11.45;;;-5.60;96.30;;;;;;4936086;29;20020;-78
2023/12/05 12:16:17;;;;;;;23.75;11.18;;;-5.60;96.20;;;;;;4927130;29;20544;-78
2023/12/05 12:18:44;;;;;;;19.20;11.27;;;-5.60;95.70;;;;;;4955111;29;20086;-78
2023/12/05 12:21:10;;;;;;;20.70;12.20;;;-5.60;95.70;;;;;;4954797;29;20023;-79
2023/12/05 12:23:36;;;;;;;21.08;10.68;;;-5.70;95.70;;;;;;4940089;29;20039;-80
2023/12/05 12:26:02;;;;;;;22.03;9.87;;;-5.70;95.90;;;;;;4942757;28;20461;-78
2023/12/05 12:28:31;;;;;;;19.67;10.50;;;-5.60;96.00;;;;;;4952996;29;20089;-78
2023/12/05 12:30:58;;;;;;;17.88;10.23;;;-5.70;96.00;;;;;;4955093;29;20022;-80